Time;durP1;ratioP1;P1;durP2;ratioP2;P2;SDS_P1;SDS_P2;PMS_P1;PMS_P2;Temp;Humidity;BMP_temperature;BMP_pressure;BME280_temperature;BME280_humidity;BME280_pressure;Samples;Min_cycle;Max_cycle;Signal;HPM_P1;HPM_P2
2022/12/08 00:00:01;;;;;;;14.27;8.27;;;;;;;;;;5089475;28;20472;-54
2022/12/08 00:02:28;;;;;;;11.95;7.45;;;;;;;;;;5089197;28;20031;-53
2022/12/08 00:10:24;;;;;;;;;;;;;;;;;;5110991;28;20054;-55
2022/12/08 00:12:50;;;;;;;13.88;7.78;;;;;;;;;;5107325;27;20360;-52
2022/12/08 00:15:16;;;;;;;14.38;8.77;;;;;;;;;;5089150;28;20028;-56
2022/12/08 00:17:42;;;;;;;15.63;7.95;;;;;;;;;;5089338;28;20056;-55
2022/12/08 00:20:08;;;;;;;13.40;8.18;;;;;;;;;;5089245;28;20051;-54
2022/12/08 00:22:35;;;;;;;13.73;7.65;;;;;;;;;;5090064;28;20035;-55
2022/12/08 00:25:02;;;;;;;14.93;8.00;;;;;;;;;;5089347;28;20047;-54
2022/12/08 00:27:29;;;;;;;14.05;7.97;;;;;;;;;;5089684;28;20020;-54
2022/12/08 00:29:55;;;;;;;15.55;7.90;;;;;;;;;;5089127;28;20020;-55
2022/12/08 00:32:22;;;;;;;13.40;7.93;;;;;;;;;;5089487;28;20455;-54
2022/12/08 00:34:48;;;;;;;14.23;7.95;;;;;;;;;;5089069;28;20462;-54
2022/12/08 00:37:14;;;;;;;11.73;7.07;;;;;;;;;;5089062;28;20024;-56
2022/12/08 00:39:40;;;;;;;14.55;8.20;;;;;;;;;;5089333;28;20483;-55
2022/12/08 00:42:12;;;;;;;14.00;8.43;;;;;;;;;;5088895;28;20024;-55
2022/12/08 00:44:38;;;;;;;13.35;7.35;;;;;;;;;;5089273;28;20028;-54
2022/12/08 00:47:04;;;;;;;13.32;8.15;;;;;;;;;;5088933;28;20473;-54
2022/12/08 00:49:31;;;;;;;14.88;9.10;;;;;;;;;;5082218;28;20026;-51
2022/12/08 00:51:57;;;;;;;12.80;7.82;;;;;;;;;;5089786;28;20506;-54
2022/12/08 00:54:23;;;;;;;12.75;7.55;;;;;;;;;;5090501;28;20714;-53
2022/12/08 00:56:49;;;;;;;13.88;8.35;;;;;;;;;;5083863;28;20110;-51
2022/12/08 00:59:15;;;;;;;13.15;7.50;;;;;;;;;;5077036;28;20035;-55
2022/12/08 01:01:43;;;;;;;14.15;8.65;;;;;;;;;;5080190;28;20036;-53
2022/12/08 01:04:11;;;;;;;13.02;8.00;;;;;;;;;;5071734;28;20507;-54
2022/12/08 06:10:51;;;;;;;22.08;11.77;;;;;;;;;;5100247;27;20104;-52
2022/12/08 06:13:17;;;;;;;22.95;13.13;;;;;;;;;;5107824;28;20415;-53
2022/12/08 06:15:44;;;;;;;22.55;13.27;;;;;;;;;;5108420;28;20097;-54
2022/12/08 06:18:11;;;;;;;21.42;12.27;;;;;;;;;;5108097;28;20134;-54
2022/12/08 06:20:37;;;;;;;19.02;10.93;;;;;;;;;;5107974;28;20024;-55
2022/12/08 06:23:03;;;;;;;18.73;11.20;;;;;;;;;;5108210;28;20102;-51
2022/12/08 06:25:30;;;;;;;19.10;11.90;;;;;;;;;;5107679;28;20165;-55
2022/12/08 06:27:56;;;;;;;18.65;11.25;;;;;;;;;;5107897;28;20597;-52
2022/12/08 06:30:23;;;;;;;18.85;11.45;;;;;;;;;;5107548;28;20169;-55
2022/12/08 06:32:50;;;;;;;16.55;10.32;;;;;;;;;;5095069;28;20103;-51
2022/12/08 06:35:16;;;;;;;18.17;10.48;;;;;;;;;;5109429;28;20416;-55
2022/12/08 06:37:43;;;;;;;18.17;10.63;;;;;;;;;;5106584;28;20117;-54
2022/12/08 06:40:09;;;;;;;16.42;9.23;;;;;;;;;;5093695;28;20023;-55
2022/12/08 06:42:45;;;;;;;17.38;9.85;;;;;;;;;;5092969;28;20057;-53
2022/12/08 06:45:11;;;;;;;18.55;10.32;;;;;;;;;;5099075;28;20038;-55
2022/12/08 06:47:38;;;;;;;16.08;9.25;;;;;;;;;;5098178;28;20108;-54
2022/12/08 06:50:04;;;;;;;17.27;9.43;;;;;;;;;;5104433;28;20498;-55
2022/12/08 06:52:30;;;;;;;15.95;8.68;;;;;;;;;;5104586;28;20127;-54
2022/12/08 06:54:56;;;;;;;16.15;9.60;;;;;;;;;;5108471;28;20024;-52
2022/12/08 06:57:23;;;;;;;23.10;12.02;;;;;;;;;;5104809;28;20502;-54
2022/12/08 06:59:49;;;;;;;21.67;10.95;;;;;;;;;;5109022;28;20053;-53
2022/12/08 07:02:16;;;;;;;20.38;11.32;;;;;;;;;;5106201;28;20031;-54
2022/12/08 07:04:42;;;;;;;17.83;9.63;;;;;;;;;;5108947;28;20023;-53
2022/12/08 07:07:08;;;;;;;20.58;11.63;;;;;;;;;;5103998;28;20032;-51
2022/12/08 07:09:35;;;;;;;23.42;12.85;;;;;;;;;;5100577;28;20020;-53
2022/12/08 07:12:02;;;;;;;22.00;12.13;;;;;;;;;;5103177;28;20142;-54
2022/12/08 07:14:28;;;;;;;19.33;10.85;;;;;;;;;;5108346;28;20020;-53
2022/12/08 07:16:54;;;;;;;19.88;10.70;;;;;;;;;;5106869;28;20028;-53
2022/12/08 07:19:20;;;;;;;18.65;9.93;;;;;;;;;;5092048;28;20031;-54
2022/12/08 07:21:46;;;;;;;17.50;9.60;;;;;;;;;;5108431;28;20414;-53
2022/12/08 07:24:12;;;;;;;14.07;8.13;;;;;;;;;;5094652;28;20032;-53
2022/12/08 07:26:38;;;;;;;15.13;8.73;;;;;;;;;;5107132;28;20027;-53
2022/12/08 07:29:04;;;;;;;12.75;8.25;;;;;;;;;;5089934;28;20390;-54
2022/12/08 07:31:31;;;;;;;18.65;11.27;;;;;;;;;;5107693;28;20023;-54
2022/12/08 07:33:57;;;;;;;20.13;11.52;;;;;;;;;;5087128;28;20435;-54
2022/12/08 07:36:24;;;;;;;21.50;11.90;;;;;;;;;;5095504;28;20046;-52
2022/12/08 07:38:52;;;;;;;18.45;10.80;;;;;;;;;;5107014;28;20463;-53
2022/12/08 07:41:20;;;;;;;18.25;10.70;;;;;;;;;;5106412;28;20030;-51
2022/12/08 07:43:46;;;;;;;14.48;9.55;;;;;;;;;;5106804;28;20031;-52
2022/12/08 07:46:14;;;;;;;14.15;8.98;;;;;;;;;;5106848;28;20042;-54
2022/12/08 07:48:40;;;;;;;14.13;8.80;;;;;;;;;;5106466;28;20020;-52
2022/12/08 07:51:06;;;;;;;16.17;9.82;;;;;;;;;;5105308;28;20043;-51
2022/12/08 07:53:33;;;;;;;20.30;10.93;;;;;;;;;;5106896;28;20098;-52
2022/12/08 07:55:59;;;;;;;16.65;9.55;;;;;;;;;;5106609;28;20028;-53
2022/12/08 07:58:26;;;;;;;20.35;10.75;;;;;;;;;;5088224;28;20414;-54
2022/12/08 08:00:52;;;;;;;22.00;11.18;;;;;;;;;;5108687;28;20116;-53
2022/12/08 08:03:20;;;;;;;23.98;11.60;;;;;;;;;;5110633;28;20076;-54
2022/12/08 08:05:48;;;;;;;20.23;11.15;;;;;;;;;;5106966;28;20036;-52
2022/12/08 08:08:15;;;;;;;19.42;10.45;;;;;;;;;;5112129;28;20028;-52
2022/12/08 08:10:41;;;;;;;20.38;10.38;;;;;;;;;;5092226;28;20028;-54
2022/12/08 08:13:07;;;;;;;19.67;10.23;;;;;;;;;;5091407;28;20092;-52
2022/12/08 08:15:33;;;;;;;18.00;9.98;;;;;;;;;;5072874;28;20039;-54
2022/12/08 08:18:00;;;;;;;18.02;9.57;;;;;;;;;;5091572;28;20055;-54
2022/12/08 08:20:26;;;;;;;16.48;9.40;;;;;;;;;;5091297;28;20043;-53
2022/12/08 08:22:52;;;;;;;15.18;8.90;;;;;;;;;;5091442;28;20047;-54
2022/12/08 08:25:18;;;;;;;12.75;7.63;;;;;;;;;;5108820;28;20039;-51
2022/12/08 08:27:45;;;;;;;15.75;7.47;;;;;;;;;;5111960;28;20020;-54
2022/12/08 08:30:12;;;;;;;14.10;8.18;;;;;;;;;;5093486;28;20031;-51
2022/12/08 08:32:38;;;;;;;16.23;9.40;;;;;;;;;;5095853;28;20150;-54
2022/12/08 08:35:05;;;;;;;14.40;8.57;;;;;;;;;;5090969;28;20032;-53
2022/12/08 08:37:31;;;;;;;15.35;8.57;;;;;;;;;;5091007;28;20020;-52
2022/12/08 08:39:57;;;;;;;15.32;9.07;;;;;;;;;;5091317;28;20364;-50
2022/12/08 08:42:23;;;;;;;15.57;8.73;;;;;;;;;;5096621;28;20027;-53
2022/12/08 08:44:49;;;;;;;15.07;8.60;;;;;;;;;;5108857;28;20102;-54
2022/12/08 08:47:15;;;;;;;15.95;8.90;;;;;;;;;;5111517;28;20023;-54
2022/12/08 08:49:41;;;;;;;16.48;8.55;;;;;;;;;;5110733;28;20028;-53
2022/12/08 08:52:07;;;;;;;15.35;8.93;;;;;;;;;;5105293;28;20038;-55
2022/12/08 08:54:34;;;;;;;16.88;9.00;;;;;;;;;;5109954;28;20137;-53
2022/12/08 08:57:00;;;;;;;18.23;9.05;;;;;;;;;;5110732;28;20024;-54
2022/12/08 08:59:27;;;;;;;18.55;9.32;;;;;;;;;;5102598;28;20103;-54
2022/12/08 09:01:53;;;;;;;19.52;9.57;;;;;;;;;;5097095;27;20086;-53
2022/12/08 09:04:20;;;;;;;14.23;7.55;;;;;;;;;;5101332;28;20120;-55
2022/12/08 09:06:47;;;;;;;17.27;8.88;;;;;;;;;;5110988;28;20020;-54
2022/12/08 09:09:13;;;;;;;14.70;7.82;;;;;;;;;;5110977;28;20035;-54
2022/12/08 09:11:40;;;;;;;15.40;7.88;;;;;;;;;;5109870;28;20667;-53
2022/12/08 09:14:06;;;;;;;16.38;8.20;;;;;;;;;;5110479;28;20044;-55
2022/12/08 09:16:32;;;;;;;17.15;8.57;;;;;;;;;;5110416;28;20459;-54
2022/12/08 09:18:59;;;;;;;16.38;8.60;;;;;;;;;;5109147;28;20084;-51
2022/12/08 09:21:26;;;;;;;17.02;9.13;;;;;;;;;;5096038;28;20052;-54
2022/12/08 09:23:53;;;;;;;16.23;9.07;;;;;;;;;;5100906;28;20483;-51
2022/12/08 09:26:21;;;;;;;17.30;9.13;;;;;;;;;;5110164;28;20053;-54
2022/12/08 09:28:51;;;;;;;16.58;9.15;;;;;;;;;;5108029;28;20027;-52
2022/12/08 09:31:18;;;;;;;19.23;9.73;;;;;;;;;;5110020;28;20023;-52
2022/12/08 09:33:44;;;;;;;18.42;10.20;;;;;;;;;;5104161;28;20027;-54
2022/12/08 09:36:10;;;;;;;17.73;10.00;;;;;;;;;;5106423;28;20016;-50
2022/12/08 09:38:37;;;;;;;17.15;9.60;;;;;;;;;;5109872;28;20036;-54
2022/12/08 09:41:04;;;;;;;19.00;10.57;;;;;;;;;;5110093;28;20485;-54
2022/12/08 09:43:50;;;;;;;20.02;10.85;;;;;;;;;;5095585;28;20395;-53
2022/12/08 09:46:18;;;;;;;18.35;10.27;;;;;;;;;;5096220;28;20023;-54
2022/12/08 09:49:02;;;;;;;22.50;11.52;;;;;;;;;;5110239;28;20023;-52
2022/12/08 09:51:37;;;;;;;20.83;10.57;;;;;;;;;;5109686;28;20024;-55
2022/12/08 09:54:03;;;;;;;18.17;10.40;;;;;;;;;;5103658;28;20119;-54
2022/12/08 09:56:34;;;;;;;19.48;10.05;;;;;;;;;;5101821;28;20038;-54
2022/12/08 09:59:03;;;;;;;20.20;10.23;;;;;;;;;;5109694;28;20024;-53
2022/12/08 10:01:31;;;;;;;20.13;10.70;;;;;;;;;;5103768;27;20024;-54
2022/12/08 10:03:57;;;;;;;17.67;9.63;;;;;;;;;;5087572;28;20157;-55
2022/12/08 10:06:35;;;;;;;18.52;10.30;;;;;;;;;;5087401;28;20609;-52
2022/12/08 10:09:20;;;;;;;18.98;10.55;;;;;;;;;;5087809;28;20028;-51
2022/12/08 10:11:55;;;;;;;21.83;11.27;;;;;;;;;;5087506;28;20024;-53
2022/12/08 10:14:21;;;;;;;21.88;11.32;;;;;;;;;;5087565;28;20182;-53
2022/12/08 10:16:49;;;;;;;21.05;11.60;;;;;;;;;;5087703;28;20130;-54
2022/12/08 10:19:18;;;;;;;19.48;10.57;;;;;;;;;;5088086;28;20032;-55
2022/12/08 10:21:45;;;;;;;18.45;9.70;;;;;;;;;;5088074;28;20487;-54
2022/12/08 10:24:16;;;;;;;18.45;10.18;;;;;;;;;;5087340;28;20055;-52
2022/12/08 10:26:43;;;;;;;19.98;10.77;;;;;;;;;;5088389;28;20093;-54
2022/12/08 10:29:13;;;;;;;21.20;10.40;;;;;;;;;;5087905;28;20028;-54
2022/12/08 10:31:39;;;;;;;18.30;10.40;;;;;;;;;;5087573;28;20411;-53
2022/12/08 10:34:31;;;;;;;16.38;8.73;;;;;;;;;;5087701;28;20024;-55
2022/12/08 10:36:59;;;;;;;21.55;10.68;;;;;;;;;;5083581;28;20440;-54
2022/12/08 10:39:31;;;;;;;17.50;9.80;;;;;;;;;;5087263;28;20099;-51
2022/12/08 10:42:18;;;;;;;18.95;10.88;;;;;;;;;;5087335;28;20499;-54
2022/12/08 10:45:03;;;;;;;18.52;10.23;;;;;;;;;;5087615;28;20024;-54
2022/12/08 10:47:29;;;;;;;22.13;10.88;;;;;;;;;;5086863;28;20031;-55
2022/12/08 10:50:09;;;;;;;18.80;10.32;;;;;;;;;;5087125;28;20059;-51
2022/12/08 10:52:39;;;;;;;20.15;11.20;;;;;;;;;;5086867;28;20035;-53
2022/12/08 10:55:19;;;;;;;21.50;11.90;;;;;;;;;;5086839;28;20097;-52
2022/12/08 10:57:47;;;;;;;20.27;10.88;;;;;;;;;;5087238;28;20028;-52
2022/12/08 11:00:14;;;;;;;19.30;10.63;;;;;;;;;;5087049;28;20518;-53
2022/12/08 11:02:57;;;;;;;21.23;11.43;;;;;;;;;;5086870;28;20031;-52
2022/12/08 11:05:28;;;;;;;20.90;11.48;;;;;;;;;;5086802;28;20073;-54
2022/12/08 11:07:55;;;;;;;16.98;9.95;;;;;;;;;;5087409;28;20036;-53
2022/12/08 11:10:28;;;;;;;19.35;11.13;;;;;;;;;;5087307;28;20111;-53
2022/12/08 11:12:56;;;;;;;19.52;11.52;;;;;;;;;;5087027;28;20039;-55
2022/12/08 11:15:22;;;;;;;20.83;11.65;;;;;;;;;;5086787;28;20445;-55
2022/12/08 11:17:59;;;;;;;19.02;11.13;;;;;;;;;;5087043;28;20547;-55
2022/12/08 11:20:26;;;;;;;19.20;10.85;;;;;;;;;;5087236;28;20024;-54
2022/12/08 11:22:54;;;;;;;21.33;11.05;;;;;;;;;;5086652;28;20566;-54
2022/12/08 11:25:23;;;;;;;20.65;12.00;;;;;;;;;;5086637;28;20115;-54
2022/12/08 11:27:50;;;;;;;26.38;14.27;;;;;;;;;;5087050;28;20028;-53
2022/12/08 11:30:23;;;;;;;22.45;13.02;;;;;;;;;;5086680;28;20030;-52
2022/12/08 11:32:52;;;;;;;23.15;13.40;;;;;;;;;;5086798;28;20055;-53
2022/12/08 11:35:30;;;;;;;21.10;12.27;;;;;;;;;;5068442;28;20036;-53
2022/12/08 11:37:57;;;;;;;20.73;11.45;;;;;;;;;;5086954;28;20150;-53
2022/12/08 11:40:35;;;;;;;20.77;11.40;;;;;;;;;;5086810;28;20024;-53
2022/12/08 11:43:06;;;;;;;20.80;11.88;;;;;;;;;;5086715;28;20566;-53
2022/12/08 11:45:33;;;;;;;19.08;10.88;;;;;;;;;;5086433;28;20099;-55
2022/12/08 11:48:14;;;;;;;19.17;11.45;;;;;;;;;;5087158;28;20028;-54
2022/12/08 11:50:43;;;;;;;21.00;12.18;;;;;;;;;;5086502;28;20024;-55
2022/12/08 11:53:18;;;;;;;21.50;11.85;;;;;;;;;;5086743;28;20035;-52
2022/12/08 11:55:50;;;;;;;19.67;11.45;;;;;;;;;;5086902;28;20028;-55
2022/12/08 11:58:18;;;;;;;23.65;13.18;;;;;;;;;;5086238;28;20518;-55
2022/12/08 12:00:44;;;;;;;22.50;12.38;;;;;;;;;;5086722;28;20032;-54
2022/12/08 12:03:17;;;;;;;24.20;13.65;;;;;;;;;;5086662;28;20039;-51
2022/12/08 12:06:06;;;;;;;20.40;12.32;;;;;;;;;;5086777;28;20067;-54
2022/12/08 12:08:44;;;;;;;21.88;12.32;;;;;;;;;;5075468;28;20380;-55
2022/12/08 12:11:10;;;;;;;20.40;12.65;;;;;;;;;;5086543;28;20020;-54
2022/12/08 12:14:02;;;;;;;21.85;12.18;;;;;;;;;;5085868;28;20241;-54
2022/12/08 12:16:31;;;;;;;18.75;11.07;;;;;;;;;;5086372;28;20052;-54
2022/12/08 12:18:59;;;;;;;21.83;12.25;;;;;;;;;;5086673;28;20107;-54
2022/12/08 12:21:31;;;;;;;20.25;11.18;;;;;;;;;;5086089;28;20095;-55
2022/12/08 12:24:03;;;;;;;20.33;11.35;;;;;;;;;;5086314;28;20027;-54
2022/12/08 12:26:30;;;;;;;17.08;10.07;;;;;;;;;;5086876;28;20028;-55
2022/12/08 12:29:01;;;;;;;18.20;10.93;;;;;;;;;;5085961;28;20476;-54
2022/12/08 12:31:32;;;;;;;20.42;11.60;;;;;;;;;;5085820;28;20135;-54
2022/12/08 12:34:11;;;;;;;18.92;9.95;;;;;;;;;;5086357;28;20047;-54
2022/12/08 12:36:47;;;;;;;17.52;10.32;;;;;;;;;;5086690;28;20415;-54
2022/12/08 12:39:15;;;;;;;18.50;11.02;;;;;;;;;;5086510;28;20036;-54
2022/12/08 12:41:46;;;;;;;16.35;9.25;;;;;;;;;;5086615;28;20390;-55
2022/12/08 12:44:12;;;;;;;17.83;10.18;;;;;;;;;;5086248;28;20024;-55
2022/12/08 12:46:42;;;;;;;15.18;9.88;;;;;;;;;;5086625;28;20028;-54
2022/12/08 12:49:26;;;;;;;16.85;10.32;;;;;;;;;;5089863;28;20468;-55
2022/12/08 12:51:55;;;;;;;15.27;9.05;;;;;;;;;;5089522;28;20026;-55
2022/12/08 12:54:21;;;;;;;18.83;9.95;;;;;;;;;;5089707;28;20032;-54
2022/12/08 12:56:48;;;;;;;15.57;9.68;;;;;;;;;;5089607;28;20039;-54
2022/12/08 12:59:43;;;;;;;16.20;9.43;;;;;;;;;;5089435;28;20044;-55
2022/12/08 13:02:29;;;;;;;18.70;10.10;;;;;;;;;;5059741;28;20114;-54
2022/12/08 13:04:57;;;;;;;16.63;9.35;;;;;;;;;;5089562;28;20032;-54
2022/12/08 13:07:24;;;;;;;16.05;9.52;;;;;;;;;;5089116;28;20054;-55
2022/12/08 13:09:55;;;;;;;15.68;9.25;;;;;;;;;;5089323;28;20020;-54
2022/12/08 13:12:23;;;;;;;15.80;9.85;;;;;;;;;;5088211;28;20499;-53
2022/12/08 13:14:50;;;;;;;14.77;9.70;;;;;;;;;;5088907;28;20467;-54
2022/12/08 13:17:22;;;;;;;16.30;9.63;;;;;;;;;;5088617;28;20410;-55
2022/12/08 13:19:52;;;;;;;16.33;9.75;;;;;;;;;;5088433;28;20111;-55
2022/12/08 13:22:36;;;;;;;15.40;8.90;;;;;;;;;;5088717;28;20182;-55
2022/12/08 13:25:22;;;;;;;17.50;9.73;;;;;;;;;;5089177;28;20032;-54
2022/12/08 13:27:52;;;;;;;15.93;9.30;;;;;;;;;;5088680;28;20051;-55
2022/12/08 13:30:37;;;;;;;19.42;10.20;;;;;;;;;;5088544;28;20027;-55
2022/12/08 13:33:03;;;;;;;17.15;9.23;;;;;;;;;;5093814;28;20047;-55
2022/12/08 13:35:29;;;;;;;16.05;9.68;;;;;;;;;;5110456;28;20020;-56
2022/12/08 13:37:59;;;;;;;15.45;9.30;;;;;;;;;;5110431;28;20164;-55
2022/12/08 13:40:29;;;;;;;14.63;8.82;;;;;;;;;;5101364;28;20024;-55
2022/12/08 13:43:16;;;;;;;15.68;9.38;;;;;;;;;;5088525;28;20038;-55
2022/12/08 13:45:43;;;;;;;16.50;9.20;;;;;;;;;;5088833;28;20602;-52
2022/12/08 13:48:15;;;;;;;14.10;8.82;;;;;;;;;;5088585;28;20028;-53
2022/12/08 13:50:44;;;;;;;15.20;9.70;;;;;;;;;;5089557;28;20024;-55
2022/12/08 13:53:10;;;;;;;17.13;9.68;;;;;;;;;;5089339;28;20103;-55
2022/12/08 13:55:42;;;;;;;16.15;9.82;;;;;;;;;;5092256;28;20123;-55
2022/12/08 13:58:16;;;;;;;16.95;9.80;;;;;;;;;;5071637;28;20031;-54
2022/12/08 14:00:42;;;;;;;;;;;;;;;;;;5090954;28;20026;-55
2022/12/08 14:03:10;;;;;;;15.70;9.40;;;;;;;;;;5089953;28;20370;-55
2022/12/08 14:05:40;;;;;;;15.90;9.85;;;;;;;;;;5089945;28;20036;-55
2022/12/08 14:08:20;;;;;;;14.40;8.90;;;;;;;;;;5099117;27;20031;-54
2022/12/08 14:10:48;;;;;;;15.93;9.15;;;;;;;;;;5108616;28;20024;-56
2022/12/08 14:13:14;;;;;;;15.13;9.00;;;;;;;;;;5108451;28;20228;-54
2022/12/08 14:15:40;;;;;;;15.05;9.20;;;;;;;;;;5107851;28;20050;-55
2022/12/08 14:18:20;;;;;;;13.70;8.30;;;;;;;;;;5108977;28;20063;-55
2022/12/08 14:20:58;;;;;;;15.63;9.02;;;;;;;;;;5107998;28;20570;-55
2022/12/08 14:23:25;;;;;;;14.63;9.07;;;;;;;;;;5100428;28;20040;-55
2022/12/08 14:25:51;;;;;;;16.70;9.70;;;;;;;;;;5102510;28;20186;-54
2022/12/08 14:28:17;;;;;;;14.43;9.20;;;;;;;;;;5096487;28;20016;-55
2022/12/08 14:30:44;;;;;;;14.85;8.57;;;;;;;;;;5108104;28;20384;-54
2022/12/08 14:33:14;;;;;;;16.77;9.13;;;;;;;;;;5092684;28;20108;-54
2022/12/08 14:35:40;;;;;;;15.20;8.82;;;;;;;;;;5106161;28;20031;-55
2022/12/08 14:38:14;;;;;;;15.40;9.20;;;;;;;;;;5106748;28;20036;-56
2022/12/08 14:40:42;;;;;;;17.00;10.45;;;;;;;;;;5088841;28;20256;-54
2022/12/08 14:43:08;;;;;;;17.52;9.85;;;;;;;;;;5107653;28;20512;-54
2022/12/08 14:45:45;;;;;;;16.33;10.05;;;;;;;;;;5113791;27;20042;-55
2022/12/08 14:48:30;;;;;;;16.88;10.45;;;;;;;;;;5128380;27;20015;-54
2022/12/08 14:51:01;;;;;;;21.98;12.05;;;;;;;;;;5115761;27;20028;-55
2022/12/08 14:53:30;;;;;;;21.80;11.85;;;;;;;;;;5106339;28;20020;-55
2022/12/08 14:55:56;;;;;;;19.67;10.75;;;;;;;;;;5105909;27;20027;-55
2022/12/08 14:58:27;;;;;;;19.45;11.20;;;;;;;;;;5115998;27;20355;-55
2022/12/08 15:00:57;;;;;;;18.98;11.07;;;;;;;;;;5125794;27;20502;-56
2022/12/08 15:03:25;;;;;;;17.40;10.40;;;;;;;;;;5126037;27;20517;-54
2022/12/08 15:05:59;;;;;;;17.73;10.15;;;;;;;;;;5075848;28;20043;-53
2022/12/08 15:08:26;;;;;;;18.13;10.35;;;;;;;;;;5112433;27;20023;-56
2022/12/08 15:11:12;;;;;;;16.67;9.88;;;;;;;;;;5101299;27;20635;-56
2022/12/08 15:13:43;;;;;;;15.60;9.52;;;;;;;;;;5117961;27;20023;-54
2022/12/08 15:16:41;;;;;;;15.52;9.43;;;;;;;;;;5108407;27;20435;-55
2022/12/08 15:19:27;;;;;;;15.77;9.68;;;;;;;;;;5055037;28;20130;-55
2022/12/08 15:21:54;;;;;;;15.82;9.45;;;;;;;;;;5107430;27;20421;-54
2022/12/08 15:24:22;;;;;;;14.73;9.10;;;;;;;;;;5106298;27;20051;-55
2022/12/08 15:26:49;;;;;;;16.42;9.45;;;;;;;;;;5088133;28;20050;-53
2022/12/08 15:29:25;;;;;;;15.88;9.07;;;;;;;;;;5104768;28;20055;-55
2022/12/08 15:31:54;;;;;;;17.70;10.30;;;;;;;;;;5108728;27;20483;-56
2022/12/08 15:34:20;;;;;;;16.50;10.55;;;;;;;;;;5107877;27;20027;-56
2022/12/08 15:36:47;;;;;;;15.32;9.70;;;;;;;;;;5104514;28;20134;-55
2022/12/08 15:39:20;;;;;;;18.00;9.77;;;;;;;;;;5101827;28;20094;-56
2022/12/08 15:41:46;;;;;;;16.17;9.77;;;;;;;;;;5108118;28;20084;-55
2022/12/08 15:44:12;;;;;;;17.08;10.05;;;;;;;;;;5111703;28;20710;-56
2022/12/08 15:46:38;;;;;;;19.27;11.45;;;;;;;;;;5127960;28;20106;-54
2022/12/08 15:49:04;;;;;;;20.85;11.73;;;;;;;;;;5113605;28;20051;-54
2022/12/08 15:51:35;;;;;;;20.40;10.77;;;;;;;;;;5088944;28;20150;-55
2022/12/08 15:54:01;;;;;;;19.17;10.73;;;;;;;;;;5088171;28;20095;-55
2022/12/08 15:56:28;;;;;;;19.50;11.18;;;;;;;;;;5102717;28;20039;-54
2022/12/08 15:58:54;;;;;;;20.45;11.30;;;;;;;;;;5109914;28;20031;-56
2022/12/08 16:01:20;;;;;;;21.30;11.82;;;;;;;;;;5107585;28;20055;-55
2022/12/08 16:03:47;;;;;;;21.23;12.45;;;;;;;;;;5105609;28;20106;-55
2022/12/08 16:06:20;;;;;;;18.85;11.40;;;;;;;;;;5107977;28;20058;-55
2022/12/08 16:08:46;;;;;;;19.98;12.20;;;;;;;;;;5101948;28;20032;-55
2022/12/08 16:13:57;;;;;;;18.40;10.88;;;;;;;;;;5089393;28;20039;-54
2022/12/08 16:16:25;;;;;;;18.67;11.65;;;;;;;;;;5108158;28;20079;-54
2022/12/08 16:18:51;;;;;;;22.15;12.15;;;;;;;;;;5107946;28;20624;-52
2022/12/08 16:21:17;;;;;;;23.38;12.88;;;;;;;;;;5109428;28;20376;-54
2022/12/08 16:23:43;;;;;;;20.48;11.57;;;;;;;;;;5112235;28;20445;-54
2022/12/08 16:26:11;;;;;;;20.95;11.68;;;;;;;;;;5111153;28;20043;-52
2022/12/08 16:28:37;;;;;;;20.17;11.82;;;;;;;;;;5111869;28;20026;-54
2022/12/08 16:31:03;;;;;;;20.52;12.05;;;;;;;;;;5111581;28;20558;-53
2022/12/08 16:33:29;;;;;;;19.65;11.43;;;;;;;;;;5092759;28;20482;-53
2022/12/08 16:35:55;;;;;;;21.23;11.35;;;;;;;;;;5111376;27;20053;-53
2022/12/08 16:38:21;;;;;;;20.05;11.75;;;;;;;;;;5111143;28;20043;-53
2022/12/08 16:43:33;;;;;;;19.45;11.15;;;;;;;;;;5107248;28;20046;-53
2022/12/08 16:46:00;;;;;;;18.48;11.07;;;;;;;;;;5100105;28;20603;-49
2022/12/08 16:48:26;;;;;;;21.00;11.93;;;;;;;;;;5090431;28;20641;-52
2022/12/08 16:50:52;;;;;;;21.70;12.32;;;;;;;;;;5090030;28;20046;-50
2022/12/08 16:53:19;;;;;;;21.52;12.73;;;;;;;;;;5088505;28;20679;-53
2022/12/08 16:55:46;;;;;;;25.17;14.30;;;;;;;;;;5089466;28;20050;-52
2022/12/08 16:58:13;;;;;;;22.88;13.45;;;;;;;;;;5089516;28;20043;-52
2022/12/08 17:00:39;;;;;;;20.88;12.43;;;;;;;;;;5089226;28;20046;-52
2022/12/08 17:03:09;;;;;;;20.73;11.80;;;;;;;;;;5088789;28;20383;-54
2022/12/08 17:05:36;;;;;;;22.05;12.60;;;;;;;;;;5089033;28;20480;-53
2022/12/08 17:08:03;;;;;;;19.80;12.30;;;;;;;;;;5089083;28;20074;-53
2022/12/08 17:10:30;;;;;;;20.85;12.65;;;;;;;;;;5088875;28;20020;-52
2022/12/08 17:12:57;;;;;;;18.90;11.75;;;;;;;;;;5088884;28;20139;-52
2022/12/08 17:15:25;;;;;;;21.60;13.13;;;;;;;;;;5089402;28;20260;-52
2022/12/08 17:17:51;;;;;;;20.67;12.18;;;;;;;;;;5088819;28;20573;-52
2022/12/08 17:20:18;;;;;;;21.60;12.95;;;;;;;;;;5088867;28;20095;-53
2022/12/08 17:22:46;;;;;;;20.77;12.05;;;;;;;;;;5089110;28;20024;-53
2022/12/08 17:25:12;;;;;;;22.45;13.02;;;;;;;;;;5088846;28;20483;-50
2022/12/08 17:27:38;;;;;;;22.25;13.55;;;;;;;;;;5088542;28;20515;-50
2022/12/08 17:30:05;;;;;;;21.00;11.77;;;;;;;;;;5089086;28;20494;-53
2022/12/08 17:32:31;;;;;;;19.95;11.57;;;;;;;;;;5087912;28;20024;-51
2022/12/08 17:34:57;;;;;;;19.77;11.48;;;;;;;;;;5088936;28;20036;-50
2022/12/08 17:37:23;;;;;;;18.98;11.05;;;;;;;;;;5088780;28;20043;-52
2022/12/08 17:39:49;;;;;;;20.55;11.13;;;;;;;;;;5088493;28;20140;-52
2022/12/08 17:42:16;;;;;;;18.65;11.55;;;;;;;;;;5088681;28;20032;-52
2022/12/08 17:44:45;;;;;;;19.55;11.45;;;;;;;;;;5089009;28;20028;-51
2022/12/08 17:47:11;;;;;;;21.50;12.60;;;;;;;;;;5088720;28;20016;-49
2022/12/08 17:49:37;;;;;;;17.92;10.98;;;;;;;;;;5088486;28;20100;-53
2022/12/08 17:52:05;;;;;;;18.60;11.32;;;;;;;;;;5088344;28;20028;-52
2022/12/08 17:54:31;;;;;;;18.70;10.85;;;;;;;;;;5088023;28;20020;-52
2022/12/08 17:56:57;;;;;;;20.50;10.90;;;;;;;;;;5088225;28;20055;-53
2022/12/08 17:59:24;;;;;;;19.95;10.90;;;;;;;;;;5088077;28;20063;-53
2022/12/08 18:01:53;;;;;;;18.63;10.82;;;;;;;;;;5087895;28;20120;-51
2022/12/08 18:04:20;;;;;;;18.13;10.88;;;;;;;;;;5088202;28;20028;-52
2022/12/08 18:06:46;;;;;;;18.98;11.20;;;;;;;;;;5088331;28;20465;-51
2022/12/08 18:09:12;;;;;;;18.45;10.30;;;;;;;;;;5088041;28;20028;-52
2022/12/08 18:11:38;;;;;;;18.00;10.63;;;;;;;;;;5087847;28;20472;-54
2022/12/08 18:14:08;;;;;;;18.83;11.10;;;;;;;;;;5087989;28;20399;-53
2022/12/08 18:16:35;;;;;;;20.25;11.70;;;;;;;;;;5087651;28;20112;-55
2022/12/08 18:19:01;;;;;;;18.23;10.18;;;;;;;;;;5087913;28;20035;-55
2022/12/08 18:21:28;;;;;;;17.98;10.52;;;;;;;;;;5087627;28;20031;-54
2022/12/08 18:23:54;;;;;;;18.65;11.02;;;;;;;;;;5087527;28;20027;-56
2022/12/08 18:26:20;;;;;;;18.00;10.88;;;;;;;;;;5087721;28;20403;-53
2022/12/08 18:28:47;;;;;;;18.65;10.80;;;;;;;;;;5087845;28;20028;-55
2022/12/08 18:31:17;;;;;;;20.65;11.27;;;;;;;;;;5087393;28;20056;-55
2022/12/08 18:33:45;;;;;;;17.73;10.57;;;;;;;;;;5087739;28;20085;-56
2022/12/08 18:36:19;;;;;;;16.83;10.25;;;;;;;;;;5087729;28;20035;-54
2022/12/08 18:38:45;;;;;;;17.15;10.50;;;;;;;;;;5087457;28;20050;-55
2022/12/08 18:41:12;;;;;;;18.90;11.25;;;;;;;;;;5087783;28;20078;-52
2022/12/08 18:43:39;;;;;;;20.45;11.77;;;;;;;;;;5086905;28;20039;-53
2022/12/08 18:46:08;;;;;;;24.80;12.85;;;;;;;;;;5086874;28;20842;-51
2022/12/08 18:48:35;;;;;;;21.58;12.23;;;;;;;;;;5087290;28;20081;-52
2022/12/08 18:51:02;;;;;;;18.98;11.45;;;;;;;;;;5087111;28;20137;-49
2022/12/08 18:53:30;;;;;;;23.27;13.50;;;;;;;;;;5087026;28;20020;-53
2022/12/08 18:55:56;;;;;;;20.95;12.27;;;;;;;;;;5086954;28;20031;-52
2022/12/08 18:58:22;;;;;;;22.02;12.52;;;;;;;;;;5086849;28;20028;-52
2022/12/08 19:00:48;;;;;;;18.88;10.93;;;;;;;;;;5068735;28;20043;-53
2022/12/08 19:03:15;;;;;;;18.88;11.48;;;;;;;;;;5087384;28;20047;-53
2022/12/08 19:05:41;;;;;;;20.45;11.10;;;;;;;;;;5087175;28;20540;-52
2022/12/08 19:08:08;;;;;;;17.92;10.73;;;;;;;;;;5086709;28;20028;-53
2022/12/08 19:10:37;;;;;;;17.20;10.27;;;;;;;;;;5086772;28;20020;-52
2022/12/08 19:13:03;;;;;;;18.77;11.10;;;;;;;;;;5086740;28;20434;-51
2022/12/08 19:15:29;;;;;;;18.00;10.68;;;;;;;;;;5086668;28;20036;-50
2022/12/08 19:17:55;;;;;;;18.75;10.63;;;;;;;;;;5086769;28;20020;-52
2022/12/08 19:20:21;;;;;;;20.15;10.95;;;;;;;;;;5099141;28;20028;-54
2022/12/08 19:22:47;;;;;;;18.67;11.10;;;;;;;;;;5104744;28;20518;-52
2022/12/08 19:25:13;;;;;;;19.95;11.30;;;;;;;;;;5106969;28;20035;-54
2022/12/08 19:27:39;;;;;;;18.08;10.68;;;;;;;;;;5106801;28;20039;-52
2022/12/08 19:30:05;;;;;;;19.40;11.30;;;;;;;;;;5104880;28;20378;-52
2022/12/08 19:32:32;;;;;;;19.88;10.52;;;;;;;;;;5102817;28;20343;-52
2022/12/08 19:34:59;;;;;;;19.15;11.07;;;;;;;;;;5106302;28;20055;-49
2022/12/08 19:37:26;;;;;;;17.67;10.30;;;;;;;;;;5092632;28;20102;-53
2022/12/08 19:45:24;;;;;;;18.30;10.70;;;;;;;;;;5105688;28;20069;-53
2022/12/08 19:47:50;;;;;;;19.38;11.20;;;;;;;;;;5105713;28;20514;-54
2022/12/08 19:50:35;;;;;;;19.58;11.45;;;;;;;;;;5101343;28;20081;-53
2022/12/08 19:53:01;;;;;;;19.70;11.70;;;;;;;;;;5085094;28;20024;-53